Allingtown, Connecticut
Current Conditions -  °F | °C
As of 9:53 PM on Thursday 27 Nov 2014 (Local Time) from KHVN Reporting Station
Overcast Overcast  
Wind Chill: 31°   Ceiling: 4500
Heat Index: 37°   Visibility: 10mi
Dew Point: 29°   Wind: 8mph
Humidity: 73%   Direction: 320°NW
Pressure: 30.02"   Gusts: NA
Location:  41.2716°N, 72.9666°W
Report Text: KHVN 280253Z AUTO 32007KT 10SM OVC045 03/M02 A3002 RMK AO2 SLP166 60000 T00281017 50001
Loading
Personal Weather Stations






























Interactive Weather Map New forecast layout! Learn more

10-Day Weather Forecast

Advertisements
Track Severe Weather on mobile